Jacks Valley, Nevada
Current Conditions -  °F | °C
As of 6:35 AM on Saturday 20 Dec 2014 (Local Time) from KCXP Reporting Station
Light Rain Light Rain  
Wind Chill: 39°   Ceiling: 5000
Heat Index: 43°   Visibility: 10mi
Dew Point: 36°   Wind: 7mph
Humidity: 76%   Direction: 230°SW
Pressure: 30.09"   Gusts: NA
Location:  39.1386°N, 119.659°W
Report Text: KCXP 201435Z AUTO 23006KT 10SM -RA FEW031 SCT041 OVC050 06/02 A3009 RMK AO2
Loading
Personal Weather Stations






























Interactive Weather Map New forecast layout! Learn more

10-Day Weather Forecast

Advertisements
Track Severe Weather on mobile